sensor_id;sensor_type;location;lat;lon;timestamp;P1;durP1;ratioP1;P2;durP2;ratioP2
37481;SDS011;23336;52.070;21.000;2022-10-17T19:23:17;55.15;;;26.88;;
37481;SDS011;23336;52.070;21.000;2022-10-17T19:25:43;43.05;;;24.13;;
37481;SDS011;23336;52.070;21.000;2022-10-17T19:28:09;40.53;;;21.95;;
37481;SDS011;23336;52.070;21.000;2022-10-17T19:30:35;34.25;;;18.33;;
37481;SDS011;23336;52.070;21.000;2022-10-17T19:33:01;33.33;;;19.02;;
37481;SDS011;23336;52.070;21.000;2022-10-17T19:35:27;34.30;;;20.27;;
37481;SDS011;23336;52.070;21.000;2022-10-17T19:37:52;34.47;;;19.85;;
37481;SDS011;23336;52.070;21.000;2022-10-17T19:40:18;38.15;;;22.60;;
37481;SDS011;23336;52.070;21.000;2022-10-17T19:42:44;37.33;;;19.52;;
37481;SDS011;23336;52.070;21.000;2022-10-17T19:45:10;38.05;;;21.05;;
37481;SDS011;23336;52.070;21.000;2022-10-17T19:47:36;33.70;;;18.48;;
37481;SDS011;23336;52.070;21.000;2022-10-17T19:50:03;34.55;;;19.30;;
37481;SDS011;23336;52.070;21.000;2022-10-17T19:52:30;33.50;;;15.75;;
37481;SDS011;23336;52.070;21.000;2022-10-17T19:54:56;29.83;;;16.77;;
37481;SDS011;23336;52.070;21.000;2022-10-17T19:57:22;31.42;;;18.17;;
37481;SDS011;23336;52.070;21.000;2022-10-17T19:59:49;36.38;;;16.90;;
37481;SDS011;23336;52.070;21.000;2022-10-17T20:02:16;25.35;;;15.90;;
37481;SDS011;23336;52.070;21.000;2022-10-17T20:04:41;31.83;;;16.55;;
37481;SDS011;23336;52.070;21.000;2022-10-17T20:07:07;30.35;;;17.33;;
37481;SDS011;23336;52.070;21.000;2022-10-17T20:09:33;31.27;;;15.48;;
37481;SDS011;23336;52.070;21.000;2022-10-17T20:11:59;35.75;;;18.30;;
37481;SDS011;23336;52.070;21.000;2022-10-17T20:14:25;32.63;;;17.15;;
37481;SDS011;23336;52.070;21.000;2022-10-17T20:16:51;38.22;;;18.15;;
37481;SDS011;23336;52.070;21.000;2022-10-17T20:19:18;31.40;;;16.55;;
37481;SDS011;23336;52.070;21.000;2022-10-17T20:21:44;29.42;;;17.40;;
37481;SDS011;23336;52.070;21.000;2022-10-17T20:24:11;26.42;;;15.95;;
37481;SDS011;23336;52.070;21.000;2022-10-17T20:26:39;28.42;;;17.23;;
37481;SDS011;23336;52.070;21.000;2022-10-17T20:29:06;35.40;;;16.63;;
37481;SDS011;23336;52.070;21.000;2022-10-17T20:31:35;31.58;;;17.45;;
37481;SDS011;23336;52.070;21.000;2022-10-17T20:34:01;28.17;;;17.15;;
37481;SDS011;23336;52.070;21.000;2022-10-17T20:36:27;29.83;;;17.60;;
37481;SDS011;23336;52.070;21.000;2022-10-17T20:38:54;31.45;;;17.98;;
37481;SDS011;23336;52.070;21.000;2022-10-17T20:41:21;31.77;;;17.42;;
37481;SDS011;23336;52.070;21.000;2022-10-17T20:43:48;38.17;;;19.48;;
37481;SDS011;23336;52.070;21.000;2022-10-17T20:46:15;30.95;;;18.35;;
37481;SDS011;23336;52.070;21.000;2022-10-17T20:48:42;35.05;;;19.80;;
37481;SDS011;23336;52.070;21.000;2022-10-17T20:51:08;36.13;;;18.55;;
37481;SDS011;23336;52.070;21.000;2022-10-17T20:53:35;32.25;;;18.48;;
37481;SDS011;23336;52.070;21.000;2022-10-17T20:56:08;38.92;;;19.50;;
37481;SDS011;23336;52.070;21.000;2022-10-17T20:58:43;34.88;;;19.08;;
37481;SDS011;23336;52.070;21.000;2022-10-17T21:01:09;40.15;;;19.90;;
37481;SDS011;23336;52.070;21.000;2022-10-17T21:03:36;33.50;;;20.05;;
37481;SDS011;23336;52.070;21.000;2022-10-17T21:06:03;37.05;;;20.08;;
37481;SDS011;23336;52.070;21.000;2022-10-17T21:08:29;42.88;;;19.80;;
37481;SDS011;23336;52.070;21.000;2022-10-17T21:11:05;41.65;;;20.42;;
37481;SDS011;23336;52.070;21.000;2022-10-17T21:13:32;32.45;;;18.23;;
37481;SDS011;23336;52.070;21.000;2022-10-17T21:16:05;34.08;;;17.92;;
37481;SDS011;23336;52.070;21.000;2022-10-17T21:18:32;31.48;;;17.60;;
37481;SDS011;23336;52.070;21.000;2022-10-17T21:21:17;36.97;;;19.17;;
37481;SDS011;23336;52.070;21.000;2022-10-17T21:23:46;31.77;;;18.13;;
37481;SDS011;23336;52.070;21.000;2022-10-17T21:26:13;34.03;;;19.60;;
37481;SDS011;23336;52.070;21.000;2022-10-17T21:28:40;38.07;;;19.30;;
37481;SDS011;23336;52.070;21.000;2022-10-17T21:31:07;33.97;;;19.43;;
37481;SDS011;23336;52.070;21.000;2022-10-17T21:33:36;39.90;;;19.90;;
37481;SDS011;23336;52.070;21.000;2022-10-17T21:36:03;35.40;;;19.55;;
37481;SDS011;23336;52.070;21.000;2022-10-17T21:38:29;37.70;;;21.23;;
37481;SDS011;23336;52.070;21.000;2022-10-17T21:40:55;46.03;;;23.70;;
37481;SDS011;23336;52.070;21.000;2022-10-17T21:43:21;40.35;;;21.02;;
37481;SDS011;23336;52.070;21.000;2022-10-17T21:45:47;37.97;;;21.75;;
37481;SDS011;23336;52.070;21.000;2022-10-17T21:48:13;41.85;;;22.75;;
37481;SDS011;23336;52.070;21.000;2022-10-17T21:50:38;32.15;;;19.40;;
37481;SDS011;23336;52.070;21.000;2022-10-17T21:53:05;32.63;;;19.60;;
